createdAt,value
2023-04-07T00:01:59.076Z,63.00
2023-04-07T00:03:59.522Z,63.00
2023-04-07T00:06:00.030Z,64.00
2023-04-07T00:07:59.053Z,64.00
2023-04-07T00:09:59.265Z,65.00
2023-04-07T00:11:59.097Z,65.00
2023-04-07T00:13:59.148Z,65.00
2023-04-07T00:15:59.062Z,65.00
2023-04-07T00:17:59.161Z,65.00
2023-04-07T00:19:59.169Z,65.00
2023-04-07T00:21:59.042Z,66.00
2023-04-07T00:23:59.165Z,66.00
2023-04-07T00:25:59.009Z,66.00
2023-04-07T00:27:59.103Z,66.00
2023-04-07T00:29:59.045Z,66.00
2023-04-07T00:31:59.364Z,66.00
2023-04-07T00:33:59.064Z,67.00
2023-04-07T00:35:59.096Z,67.00
2023-04-07T00:37:59.035Z,67.00
2023-04-07T00:39:59.047Z,67.00
2023-04-07T00:41:59.185Z,67.00
2023-04-07T00:43:59.053Z,67.00
2023-04-07T00:45:59.329Z,67.00
2023-04-07T00:47:59.163Z,67.00
2023-04-07T00:49:59.110Z,68.00
2023-04-07T00:51:59.038Z,68.00
2023-04-07T00:53:59.048Z,68.00
2023-04-07T00:55:59.144Z,69.00
2023-04-07T00:57:59.100Z,69.00
2023-04-07T00:59:59.615Z,69.00
2023-04-07T01:01:59.157Z,70.00
2023-04-07T01:03:59.524Z,70.00
2023-04-07T01:05:59.087Z,70.00
2023-04-07T01:07:59.071Z,70.00
2023-04-07T01:09:59.092Z,70.00
2023-04-07T01:11:59.192Z,71.00
2023-04-07T01:13:59.075Z,71.00
2023-04-07T01:15:59.123Z,71.00
2023-04-07T01:17:59.112Z,71.00
2023-04-07T01:19:59.044Z,71.00
2023-04-07T01:21:59.093Z,71.00
2023-04-07T01:23:59.099Z,72.00
2023-04-07T01:25:59.047Z,72.00
2023-04-07T01:27:59.083Z,72.00
2023-04-07T01:29:59.126Z,72.00
2023-04-07T01:31:59.161Z,72.00
2023-04-07T01:33:59.054Z,72.00
2023-04-07T01:36:03.960Z,72.00
2023-04-07T01:37:59.312Z,72.00
2023-04-07T01:39:59.095Z,72.00
2023-04-07T01:41:59.389Z,73.00
2023-04-07T01:43:59.713Z,73.00
2023-04-07T01:45:59.153Z,73.00
2023-04-07T01:47:59.149Z,73.00
2023-04-07T01:49:59.112Z,74.00
2023-04-07T01:51:59.091Z,74.00
2023-04-07T01:53:59.046Z,74.00
2023-04-07T01:55:59.087Z,74.00
2023-04-07T01:58:00.527Z,74.00
2023-04-07T01:59:59.555Z,74.00
2023-04-07T02:01:59.366Z,74.00
2023-04-07T02:03:59.536Z,74.00
2023-04-07T02:05:59.902Z,74.00
2023-04-07T02:08:00.598Z,75.00
2023-04-07T02:09:59.108Z,75.00
2023-04-07T02:11:59.237Z,75.00
2023-04-07T02:14:04.030Z,75.00
2023-04-07T02:15:59.081Z,75.00
2023-04-07T02:17:59.176Z,75.00
2023-04-07T02:19:59.278Z,75.00
2023-04-07T02:21:59.154Z,75.00
2023-04-07T02:24:03.545Z,75.00
2023-04-07T02:25:59.127Z,75.00
2023-04-07T02:28:02.658Z,75.00
2023-04-07T02:29:59.085Z,75.00
2023-04-07T02:31:59.163Z,75.00
2023-04-07T02:33:59.075Z,75.00
2023-04-07T02:35:59.378Z,75.00
2023-04-07T02:37:59.153Z,75.00
2023-04-07T02:39:59.127Z,75.00
2023-04-07T02:41:59.206Z,75.00
2023-04-07T02:44:00.757Z,75.00
2023-04-07T02:45:59.161Z,75.00
2023-04-07T02:47:59.507Z,75.00
2023-04-07T02:50:11.271Z,75.00
2023-04-07T02:52:11.256Z,75.00
2023-04-07T02:54:11.282Z,75.00
2023-04-07T02:56:11.396Z,75.00
2023-04-07T02:58:11.367Z,75.00
2023-04-07T03:00:11.302Z,75.00
2023-04-07T03:02:11.466Z,75.00
2023-04-07T03:04:11.448Z,75.00
2023-04-07T03:06:11.281Z,75.00
2023-04-07T03:08:12.971Z,75.00
2023-04-07T03:10:11.313Z,75.00
2023-04-07T03:12:11.365Z,75.00
2023-04-07T03:14:11.390Z,75.00
2023-04-07T03:16:11.281Z,75.00
2023-04-07T03:18:11.283Z,75.00
2023-04-07T03:20:11.424Z,75.00
2023-04-07T03:22:14.255Z,75.00
2023-04-07T03:24:11.400Z,75.00
2023-04-07T03:26:14.008Z,75.00
2023-04-07T03:28:11.384Z,75.00
2023-04-07T03:30:11.287Z,75.00
2023-04-07T03:32:11.460Z,75.00
2023-04-07T03:34:11.487Z,75.00
2023-04-07T03:36:11.433Z,75.00
2023-04-07T03:38:16.108Z,75.00
2023-04-07T03:40:11.435Z,75.00
2023-04-07T03:42:11.315Z,75.00
2023-04-07T03:44:11.352Z,76.00
2023-04-07T03:46:11.379Z,76.00
2023-04-07T03:48:11.264Z,76.00
2023-04-07T03:50:11.305Z,76.00
2023-04-07T03:52:11.336Z,76.00
2023-04-07T03:54:11.355Z,76.00
2023-04-07T03:56:11.366Z,76.00
2023-04-07T03:58:11.602Z,76.00
2023-04-07T04:00:11.611Z,76.00
2023-04-07T04:02:11.465Z,76.00
2023-04-07T04:04:11.604Z,76.00
2023-04-07T04:06:11.397Z,76.00
2023-04-07T04:08:11.439Z,76.00
2023-04-07T04:10:11.381Z,76.00
2023-04-07T04:12:11.285Z,76.00
2023-04-07T04:14:16.198Z,76.00
2023-04-07T04:16:13.793Z,76.00
2023-04-07T04:18:11.402Z,76.00
2023-04-07T04:20:11.527Z,76.00
2023-04-07T04:22:16.213Z,76.00
2023-04-07T04:25:11.346Z,76.00
2023-04-07T04:27:11.380Z,75.00
2023-04-07T04:29:11.345Z,75.00
2023-04-07T04:31:11.336Z,75.00
2023-04-07T04:33:11.507Z,75.00
2023-04-07T04:35:11.359Z,75.00
2023-04-07T04:37:11.376Z,75.00
2023-04-07T04:39:11.561Z,75.00
2023-04-07T04:41:11.383Z,75.00
2023-04-07T04:43:11.568Z,75.00
2023-04-07T04:45:11.362Z,75.00
2023-04-07T04:47:11.403Z,75.00
2023-04-07T04:49:11.633Z,75.00
2023-04-07T04:51:11.354Z,75.00
2023-04-07T04:53:11.396Z,75.00
2023-04-07T04:55:13.326Z,75.00
2023-04-07T04:57:11.483Z,75.00
2023-04-07T04:59:11.712Z,75.00
2023-04-07T05:01:11.607Z,75.00
2023-04-07T05:03:12.645Z,75.00
2023-04-07T05:05:11.405Z,75.00
2023-04-07T05:07:11.381Z,75.00
2023-04-07T05:09:11.463Z,76.00
2023-04-07T05:11:11.469Z,76.00
2023-04-07T05:13:11.410Z,76.00
2023-04-07T05:15:11.380Z,76.00
2023-04-07T05:17:11.337Z,76.00
2023-04-07T05:19:15.481Z,77.00
2023-04-07T05:21:11.592Z,77.00
2023-04-07T05:23:11.412Z,77.00
2023-04-07T05:25:11.408Z,77.00
2023-04-07T05:27:11.617Z,77.00
2023-04-07T05:29:11.319Z,77.00
2023-04-07T05:31:11.452Z,77.00
2023-04-07T05:33:11.411Z,77.00
2023-04-07T05:35:11.361Z,77.00
2023-04-07T05:37:11.406Z,77.00
2023-04-07T05:39:11.391Z,77.00
2023-04-07T05:41:11.405Z,77.00
2023-04-07T05:43:11.529Z,77.00
2023-04-07T05:45:14.243Z,77.00
2023-04-07T05:47:13.177Z,78.00
2023-04-07T05:49:19.651Z,78.00
2023-04-07T05:51:11.370Z,78.00
2023-04-07T05:53:11.415Z,78.00
2023-04-07T05:55:13.244Z,78.00
2023-04-07T05:57:11.390Z,78.00
2023-04-07T05:59:11.469Z,78.00
2023-04-07T06:01:11.630Z,78.00
2023-04-07T06:03:11.528Z,78.00
2023-04-07T06:05:11.836Z,78.00
2023-04-07T06:07:16.285Z,78.00
2023-04-07T06:09:11.705Z,78.00
2023-04-07T06:11:14.281Z,78.00
2023-04-07T06:13:11.544Z,78.00
2023-04-07T06:15:11.428Z,79.00
2023-04-07T06:17:11.394Z,79.00
2023-04-07T06:19:11.405Z,79.00
2023-04-07T06:21:12.005Z,79.00
2023-04-07T06:23:11.434Z,79.00
2023-04-07T06:25:11.525Z,79.00
2023-04-07T06:27:11.434Z,79.00
2023-04-07T06:29:11.545Z,79.00
2023-04-07T06:31:11.487Z,79.00
2023-04-07T06:33:11.904Z,79.00
2023-04-07T06:35:11.413Z,79.00
2023-04-07T06:37:11.530Z,79.00
2023-04-07T06:39:11.363Z,79.00
2023-04-07T06:41:11.499Z,79.00
2023-04-07T06:43:11.457Z,79.00
2023-04-07T06:45:11.463Z,79.00
2023-04-07T06:47:11.576Z,79.00
2023-04-07T06:49:11.421Z,79.00
2023-04-07T06:51:11.456Z,79.00
2023-04-07T06:53:11.404Z,79.00
2023-04-07T06:55:11.447Z,79.00
2023-04-07T06:57:11.393Z,79.00
2023-04-07T06:59:11.421Z,79.00
2023-04-07T07:01:11.472Z,79.00
2023-04-07T07:03:11.563Z,79.00
2023-04-07T07:05:11.629Z,79.00
2023-04-07T07:07:11.543Z,79.00
2023-04-07T07:09:11.553Z,79.00
2023-04-07T07:11:11.648Z,79.00
2023-04-07T07:13:11.433Z,79.00
2023-04-07T07:15:14.394Z,79.00
2023-04-07T07:17:11.454Z,79.00
2023-04-07T07:19:11.435Z,79.00
2023-04-07T07:21:11.627Z,79.00
2023-04-07T07:23:11.430Z,79.00
2023-04-07T07:25:11.464Z,79.00
2023-04-07T07:27:11.474Z,79.00
2023-04-07T07:29:11.449Z,79.00
2023-04-07T07:31:11.467Z,79.00
2023-04-07T07:33:11.458Z,79.00
2023-04-07T07:35:11.617Z,79.00
2023-04-07T07:37:11.496Z,79.00
2023-04-07T07:39:11.565Z,79.00
2023-04-07T07:41:11.434Z,79.00
2023-04-07T07:43:11.422Z,79.00
2023-04-07T07:45:11.577Z,79.00
2023-04-07T07:47:11.678Z,79.00
2023-04-07T07:49:11.673Z,79.00
2023-04-07T07:51:11.512Z,79.00
2023-04-07T07:53:11.673Z,79.00
2023-04-07T07:55:11.461Z,79.00
2023-04-07T07:57:11.878Z,79.00
2023-04-07T07:59:11.453Z,79.00
2023-04-07T08:01:16.328Z,79.00
2023-04-07T08:04:11.716Z,79.00
2023-04-07T08:06:11.482Z,79.00
2023-04-07T08:08:11.519Z,79.00
2023-04-07T08:10:11.483Z,79.00
2023-04-07T08:12:11.473Z,79.00
2023-04-07T08:14:14.019Z,79.00
2023-04-07T08:16:11.569Z,79.00
2023-04-07T08:18:11.553Z,79.00
2023-04-07T08:20:11.505Z,79.00
2023-04-07T08:22:13.811Z,79.00
2023-04-07T08:24:11.551Z,78.00
2023-04-07T08:26:11.532Z,78.00
2023-04-07T08:28:11.505Z,78.00
2023-04-07T08:30:16.551Z,78.00
2023-04-07T08:32:11.622Z,78.00
2023-04-07T08:34:11.482Z,78.00
2023-04-07T08:36:11.586Z,78.00
2023-04-07T08:38:11.534Z,78.00
2023-04-07T08:40:11.484Z,78.00
2023-04-07T08:42:11.752Z,77.00
2023-04-07T08:44:11.471Z,77.00
2023-04-07T08:46:11.646Z,77.00
2023-04-07T08:48:11.637Z,77.00
2023-04-07T08:50:11.501Z,77.00
2023-04-07T08:54:21.221Z,77.00
2023-04-07T08:56:21.053Z,77.00
2023-04-07T08:58:23.129Z,77.00
2023-04-07T09:00:24.085Z,78.00
2023-04-07T09:02:21.182Z,78.00
2023-04-07T09:04:21.127Z,78.00
2023-04-07T09:06:21.192Z,78.00
2023-04-07T09:08:24.176Z,78.00
2023-04-07T09:10:21.321Z,77.00
2023-04-07T09:12:21.156Z,77.00
2023-04-07T09:14:21.403Z,77.00
2023-04-07T09:16:21.148Z,77.00
2023-04-07T09:18:21.086Z,77.00
2023-04-07T09:20:21.196Z,77.00
2023-04-07T09:22:21.126Z,77.00
2023-04-07T09:24:21.049Z,77.00
2023-04-07T09:26:21.078Z,76.00
2023-04-07T09:28:21.237Z,76.00
2023-04-07T09:30:21.096Z,76.00
2023-04-07T09:32:21.360Z,76.00
2023-04-07T09:34:21.158Z,76.00
2023-04-07T09:36:21.321Z,76.00
2023-04-07T09:38:21.028Z,76.00
2023-04-07T09:40:21.170Z,76.00
2023-04-07T09:42:21.187Z,74.00
2023-04-07T09:44:21.188Z,74.00
2023-04-07T09:46:21.341Z,73.00
2023-04-07T09:48:21.199Z,73.00
2023-04-07T09:50:21.058Z,72.00
2023-04-07T09:52:21.119Z,72.00
2023-04-07T09:54:21.304Z,72.00
2023-04-07T09:56:21.121Z,72.00
2023-04-07T09:58:21.102Z,72.00
2023-04-07T10:00:21.204Z,72.00
2023-04-07T10:02:21.239Z,72.00
2023-04-07T10:04:21.794Z,72.00
2023-04-07T10:06:21.133Z,71.00
2023-04-07T10:08:21.097Z,71.00
2023-04-07T10:10:24.042Z,71.00
2023-04-07T10:12:21.205Z,71.00
2023-04-07T10:14:21.068Z,71.00
2023-04-07T10:16:21.126Z,71.00
2023-04-07T10:18:21.304Z,73.00
2023-04-07T10:20:21.402Z,73.00
2023-04-07T10:22:21.252Z,73.00
2023-04-07T10:24:21.088Z,71.00
2023-04-07T10:26:21.167Z,71.00
2023-04-07T10:28:21.305Z,71.00
2023-04-07T10:30:21.411Z,71.00
2023-04-07T10:32:21.155Z,72.00
2023-04-07T10:34:21.057Z,71.00
2023-04-07T10:36:21.148Z,71.00
2023-04-07T10:38:21.226Z,70.00
2023-04-07T10:40:25.301Z,70.00
2023-04-07T10:42:21.118Z,69.00
2023-04-07T10:44:21.421Z,69.00
2023-04-07T10:46:21.491Z,69.00
2023-04-07T10:48:21.165Z,70.00
2023-04-07T10:50:21.141Z,70.00
2023-04-07T10:52:21.998Z,70.00
2023-04-07T10:54:21.388Z,70.00
2023-04-07T10:56:21.135Z,71.00
2023-04-07T10:58:21.236Z,71.00
2023-04-07T11:00:21.175Z,71.00
2023-04-07T11:02:21.380Z,70.00
2023-04-07T11:04:21.994Z,70.00
2023-04-07T11:06:21.908Z,70.00
2023-04-07T11:08:26.024Z,70.00
2023-04-07T11:10:21.149Z,70.00
2023-04-07T11:12:21.406Z,69.00
2023-04-07T11:14:26.036Z,69.00
2023-04-07T11:16:21.140Z,69.00
2023-04-07T11:18:21.177Z,69.00
2023-04-07T11:20:21.276Z,69.00
2023-04-07T11:24:23.166Z,69.00
2023-04-07T11:26:26.107Z,69.00
2023-04-07T11:28:21.123Z,68.00
2023-04-07T11:30:21.178Z,69.00
2023-04-07T11:32:22.960Z,68.00
2023-04-07T11:34:23.849Z,69.00
2023-04-07T11:36:21.153Z,69.00
2023-04-07T11:38:21.142Z,68.00
2023-04-07T11:40:27.192Z,68.00
2023-04-07T11:42:22.294Z,68.00
2023-04-07T11:44:21.195Z,68.00
2023-04-07T11:46:21.336Z,68.00
2023-04-07T11:48:21.243Z,66.00
2023-04-07T11:50:21.220Z,66.00
2023-04-07T11:52:21.204Z,66.00
2023-04-07T11:54:21.193Z,66.00
2023-04-07T11:56:21.225Z,66.00
2023-04-07T11:58:21.334Z,67.00
2023-04-07T12:00:21.285Z,67.00
2023-04-07T12:02:21.292Z,67.00
2023-04-07T12:04:21.533Z,67.00
2023-04-07T12:06:21.182Z,67.00
2023-04-07T12:08:21.152Z,67.00
2023-04-07T12:10:21.203Z,66.00
2023-04-07T12:12:22.586Z,66.00
2023-04-07T12:14:21.149Z,66.00
2023-04-07T12:16:21.247Z,66.00
2023-04-07T12:18:21.134Z,66.00
2023-04-07T12:20:21.264Z,66.00
2023-04-07T12:22:21.631Z,66.00
2023-04-07T12:25:21.189Z,66.00
2023-04-07T12:27:24.637Z,66.00
2023-04-07T12:29:21.264Z,65.00
2023-04-07T12:31:21.228Z,65.00
2023-04-07T12:33:21.322Z,65.00
2023-04-07T12:35:21.354Z,65.00
2023-04-07T12:37:21.160Z,65.00
2023-04-07T12:39:21.273Z,65.00
2023-04-07T12:41:21.219Z,65.00
2023-04-07T12:43:21.246Z,66.00
2023-04-07T12:45:21.584Z,65.00
2023-04-07T12:47:21.292Z,65.00
2023-04-07T12:49:21.359Z,66.00
2023-04-07T12:51:21.228Z,66.00
2023-04-07T12:53:21.256Z,66.00
2023-04-07T12:55:21.182Z,66.00
2023-04-07T12:57:21.950Z,66.00
2023-04-07T12:59:21.330Z,66.00
2023-04-07T13:01:21.327Z,65.00
2023-04-07T13:03:21.511Z,64.00
2023-04-07T13:05:21.530Z,64.00
2023-04-07T13:07:21.311Z,64.00
2023-04-07T13:09:26.148Z,65.00
2023-04-07T13:11:21.369Z,65.00
2023-04-07T13:13:21.173Z,64.00
2023-04-07T13:15:21.338Z,64.00
2023-04-07T13:17:21.244Z,65.00
2023-04-07T13:19:21.438Z,64.00
2023-04-07T13:21:43.828Z,64.00
2023-04-07T13:23:21.332Z,64.00
2023-04-07T13:25:33.116Z,64.00
2023-04-07T13:27:33.533Z,64.00
2023-04-07T13:29:21.592Z,64.00
2023-04-07T13:31:25.882Z,64.00
2023-04-07T13:33:21.503Z,64.00
2023-04-07T13:35:21.513Z,64.00
2023-04-07T13:37:21.549Z,64.00
2023-04-07T13:39:21.522Z,64.00
2023-04-07T13:41:21.438Z,64.00
2023-04-07T13:43:21.628Z,64.00
2023-04-07T13:45:21.335Z,62.00
2023-04-07T13:47:21.544Z,62.00
2023-04-07T13:49:21.534Z,63.00
2023-04-07T13:51:21.484Z,63.00
2023-04-07T13:53:21.471Z,63.00
2023-04-07T13:55:21.516Z,63.00
2023-04-07T13:57:24.777Z,63.00
2023-04-07T13:59:21.244Z,61.00
2023-04-07T14:01:21.271Z,61.00
2023-04-07T14:03:21.741Z,62.00
2023-04-07T14:05:21.306Z,61.00
2023-04-07T14:07:21.379Z,62.00
2023-04-07T14:09:21.259Z,61.00
2023-04-07T14:11:24.116Z,61.00
2023-04-07T14:13:21.453Z,62.00
2023-04-07T14:15:21.270Z,62.00
2023-04-07T14:17:21.414Z,62.00
2023-04-07T14:19:21.269Z,63.00
2023-04-07T14:21:21.233Z,63.00
2023-04-07T14:23:33.888Z,62.00
2023-04-07T14:25:21.414Z,62.00
2023-04-07T14:27:21.504Z,63.00
2023-04-07T14:29:21.445Z,63.00
2023-04-07T14:31:26.208Z,63.00
2023-04-07T14:33:21.331Z,63.00
2023-04-07T14:35:21.473Z,63.00
2023-04-07T14:37:21.285Z,62.00
2023-04-07T14:39:21.239Z,62.00
2023-04-07T14:41:21.312Z,61.00
2023-04-07T14:43:21.305Z,62.00
2023-04-07T14:45:21.279Z,62.00
2023-04-07T14:47:22.795Z,63.00
2023-04-07T14:49:21.253Z,63.00
2023-04-07T14:51:21.345Z,63.00
2023-04-07T14:53:21.262Z,62.00
2023-04-07T14:55:21.594Z,62.00
2023-04-07T14:57:21.367Z,62.00
2023-04-07T14:59:21.261Z,63.00
2023-04-07T15:01:24.417Z,63.00
2023-04-07T15:03:24.551Z,63.00
2023-04-07T15:05:21.386Z,62.00
2023-04-07T15:07:21.363Z,62.00
2023-04-07T15:09:21.349Z,62.00
2023-04-07T15:11:21.395Z,62.00
2023-04-07T15:13:22.487Z,62.00
2023-04-07T15:15:21.611Z,63.00
2023-04-07T15:17:27.567Z,63.00
2023-04-07T15:19:21.418Z,63.00
2023-04-07T15:21:21.342Z,63.00
2023-04-07T15:23:29.934Z,63.00
2023-04-07T15:25:41.828Z,63.00
2023-04-07T15:27:45.204Z,62.00
2023-04-07T15:29:41.815Z,62.00
2023-04-07T15:31:44.144Z,63.00
2023-04-07T15:33:41.858Z,63.00
2023-04-07T15:35:42.140Z,63.00
2023-04-07T15:37:41.829Z,63.00
2023-04-07T15:39:41.963Z,63.00
2023-04-07T15:41:41.909Z,63.00
2023-04-07T15:43:41.848Z,63.00
2023-04-07T15:45:41.901Z,63.00
2023-04-07T15:47:42.009Z,63.00
2023-04-07T15:49:41.932Z,63.00
2023-04-07T15:51:41.918Z,64.00
2023-04-07T15:53:42.217Z,64.00
2023-04-07T15:55:41.872Z,64.00
2023-04-07T15:57:41.961Z,64.00
2023-04-07T15:59:41.929Z,64.00
2023-04-07T16:01:42.161Z,64.00
2023-04-07T16:03:43.642Z,64.00
2023-04-07T16:05:44.345Z,64.00
2023-04-07T16:07:43.114Z,64.00
2023-04-07T16:09:41.878Z,64.00
2023-04-07T16:11:41.939Z,64.00
2023-04-07T16:13:41.943Z,64.00
2023-04-07T16:15:41.960Z,64.00
2023-04-07T16:17:44.358Z,64.00
2023-04-07T16:19:41.960Z,64.00
2023-04-07T16:21:41.909Z,64.00
2023-04-07T16:23:41.929Z,64.00
2023-04-07T16:25:41.868Z,64.00
2023-04-07T16:27:41.849Z,64.00
2023-04-07T16:29:43.202Z,64.00
2023-04-07T16:31:42.421Z,65.00
2023-04-07T16:33:42.407Z,65.00
2023-04-07T16:35:43.060Z,65.00
2023-04-07T16:37:43.376Z,65.00
2023-04-07T16:39:42.716Z,65.00
2023-04-07T16:41:41.923Z,65.00
2023-04-07T16:43:42.048Z,65.00
2023-04-07T16:45:46.257Z,65.00
2023-04-07T16:47:42.065Z,65.00
2023-04-07T16:49:42.282Z,66.00
2023-04-07T16:51:42.097Z,66.00
2023-04-07T16:53:42.478Z,66.00
2023-04-07T16:55:42.512Z,66.00
2023-04-07T16:57:42.515Z,66.00
2023-04-07T16:59:41.979Z,66.00
2023-04-07T17:01:42.429Z,67.00
2023-04-07T17:03:47.098Z,67.00
2023-04-07T17:05:42.761Z,67.00
2023-04-07T17:07:42.169Z,67.00
2023-04-07T17:09:42.449Z,67.00
2023-04-07T17:11:42.035Z,67.00
2023-04-07T17:13:41.999Z,67.00
2023-04-07T17:15:42.310Z,67.00
2023-04-07T17:17:42.055Z,68.00
2023-04-07T17:19:42.269Z,68.00
2023-04-07T17:21:42.012Z,68.00
2023-04-07T17:23:41.976Z,68.00
2023-04-07T17:25:41.869Z,68.00
2023-04-07T17:27:41.990Z,68.00
2023-04-07T17:29:41.996Z,68.00
2023-04-07T17:31:42.022Z,68.00
2023-04-07T17:33:42.045Z,68.00
2023-04-07T17:35:42.216Z,68.00
2023-04-07T17:38:42.101Z,68.00
2023-04-07T17:39:43.407Z,69.00
2023-04-07T17:42:42.069Z,69.00
2023-04-07T17:44:42.107Z,69.00
2023-04-07T17:46:42.082Z,69.00
2023-04-07T17:48:42.491Z,69.00
2023-04-07T17:50:42.036Z,69.00
2023-04-07T17:52:42.103Z,70.00
2023-04-07T17:54:44.986Z,70.00
2023-04-07T17:56:42.112Z,70.00
2023-04-07T17:58:42.190Z,70.00
2023-04-07T18:00:42.047Z,70.00
2023-04-07T18:02:49.169Z,70.00
2023-04-07T18:04:42.150Z,70.00
2023-04-07T18:06:42.026Z,70.00
2023-04-07T18:08:42.208Z,70.00
2023-04-07T18:10:42.035Z,70.00
2023-04-07T18:12:41.989Z,70.00
2023-04-07T18:14:42.261Z,70.00
2023-04-07T18:16:42.000Z,71.00
2023-04-07T18:18:42.295Z,71.00
2023-04-07T18:20:42.032Z,72.00
2023-04-07T18:22:42.084Z,72.00
2023-04-07T18:24:42.965Z,72.00
2023-04-07T18:26:42.557Z,72.00
2023-04-07T18:28:41.946Z,72.00
2023-04-07T18:30:41.952Z,72.00
2023-04-07T18:32:42.149Z,72.00
2023-04-07T18:34:42.573Z,72.00
2023-04-07T18:36:42.333Z,72.00
2023-04-07T18:38:42.003Z,73.00
2023-04-07T18:40:42.410Z,73.00
2023-04-07T18:42:41.951Z,73.00
2023-04-07T18:44:43.750Z,73.00
2023-04-07T18:46:42.007Z,73.00
2023-04-07T18:48:42.121Z,73.00
2023-04-07T18:50:42.008Z,74.00
2023-04-07T18:52:41.949Z,74.00
2023-04-07T18:54:42.238Z,74.00
2023-04-07T18:56:42.194Z,74.00
2023-04-07T18:58:41.944Z,74.00
2023-04-07T19:00:42.072Z,74.00
2023-04-07T19:02:42.432Z,74.00
2023-04-07T19:04:42.114Z,74.00
2023-04-07T19:06:42.079Z,74.00
2023-04-07T19:08:42.008Z,75.00
2023-04-07T19:10:42.168Z,75.00
2023-04-07T19:12:42.022Z,75.00
2023-04-07T19:14:42.109Z,75.00
2023-04-07T19:16:42.089Z,75.00
2023-04-07T19:18:42.643Z,76.00
2023-04-07T19:20:42.110Z,76.00
2023-04-07T19:22:47.148Z,76.00
2023-04-07T19:24:42.040Z,76.00
2023-04-07T19:26:42.119Z,76.00
2023-04-07T19:28:42.063Z,76.00
2023-04-07T19:30:41.976Z,76.00
2023-04-07T19:32:42.109Z,76.00
2023-04-07T19:34:42.000Z,76.00
2023-04-07T19:36:41.994Z,77.00
2023-04-07T19:38:43.031Z,77.00
2023-04-07T19:40:42.311Z,77.00
2023-04-07T19:42:42.527Z,77.00
2023-04-07T19:44:42.003Z,77.00
2023-04-07T19:46:42.043Z,77.00
2023-04-07T19:48:42.024Z,77.00
2023-04-07T19:50:42.075Z,77.00
2023-04-07T19:52:42.088Z,77.00
2023-04-07T19:54:42.034Z,77.00
2023-04-07T19:56:42.324Z,77.00
2023-04-07T19:58:42.619Z,77.00
2023-04-07T20:00:42.062Z,77.00
2023-04-07T20:02:42.303Z,77.00
2023-04-07T20:04:42.043Z,77.00
2023-04-07T20:06:42.019Z,77.00
2023-04-07T20:08:41.993Z,78.00
2023-04-07T20:10:42.189Z,78.00
2023-04-07T20:12:42.218Z,78.00
2023-04-07T20:14:42.183Z,78.00
2023-04-07T20:16:42.133Z,78.00
2023-04-07T20:18:42.053Z,78.00
2023-04-07T20:20:42.151Z,78.00
2023-04-07T20:22:42.273Z,78.00
2023-04-07T20:24:42.109Z,78.00
2023-04-07T20:26:42.108Z,78.00
2023-04-07T20:28:42.041Z,78.00
2023-04-07T20:30:42.426Z,78.00
2023-04-07T20:32:42.254Z,78.00
2023-04-07T20:34:42.115Z,78.00
2023-04-07T20:36:42.144Z,78.00
2023-04-07T20:38:46.988Z,78.00
2023-04-07T20:40:42.046Z,79.00
2023-04-07T20:42:42.253Z,79.00
2023-04-07T20:44:42.028Z,79.00
2023-04-07T20:46:42.084Z,79.00
2023-04-07T20:48:42.441Z,79.00
2023-04-07T20:50:42.045Z,79.00
2023-04-07T20:52:42.030Z,79.00
2023-04-07T20:54:42.380Z,79.00
2023-04-07T20:56:44.930Z,79.00
2023-04-07T20:58:42.194Z,79.00
2023-04-07T21:00:43.113Z,79.00
2023-04-07T21:02:42.394Z,79.00
2023-04-07T21:07:11.771Z,79.00
2023-04-07T21:09:13.773Z,79.00
2023-04-07T21:11:13.348Z,79.00
2023-04-07T21:13:11.778Z,79.00
2023-04-07T21:15:11.891Z,79.00
2023-04-07T21:17:12.611Z,79.00
2023-04-07T21:19:11.757Z,79.00
2023-04-07T21:21:21.329Z,79.00
2023-04-07T21:23:11.925Z,79.00
2023-04-07T21:25:11.852Z,79.00
2023-04-07T21:27:11.698Z,79.00
2023-04-07T21:29:11.837Z,79.00
2023-04-07T21:31:11.821Z,79.00
2023-04-07T21:33:11.699Z,79.00
2023-04-07T21:35:11.921Z,79.00
2023-04-07T21:37:12.977Z,79.00
2023-04-07T21:39:11.929Z,79.00
2023-04-07T21:41:12.023Z,79.00
2023-04-07T21:43:11.666Z,80.00
2023-04-07T21:45:11.680Z,80.00
2023-04-07T21:47:11.669Z,80.00
2023-04-07T21:49:11.746Z,80.00
2023-04-07T21:51:16.606Z,80.00
2023-04-07T21:53:11.717Z,80.00
2023-04-07T21:55:11.747Z,80.00
2023-04-07T21:57:11.756Z,80.00
2023-04-07T21:59:11.933Z,80.00
2023-04-07T22:01:11.881Z,80.00
2023-04-07T22:03:11.893Z,80.00
2023-04-07T22:05:14.359Z,80.00
2023-04-07T22:07:16.659Z,80.00
2023-04-07T22:09:11.785Z,80.00
2023-04-07T22:11:11.818Z,80.00
2023-04-07T22:13:12.678Z,80.00
2023-04-07T22:15:11.735Z,80.00
2023-04-07T22:17:11.741Z,80.00
2023-04-07T22:19:11.734Z,80.00
2023-04-07T22:21:12.642Z,80.00
2023-04-07T22:23:11.730Z,80.00
2023-04-07T22:25:11.788Z,80.00
2023-04-07T22:27:11.690Z,80.00
2023-04-07T22:29:11.741Z,80.00
2023-04-07T22:31:11.777Z,80.00
2023-04-07T22:33:11.776Z,80.00
2023-04-07T22:35:11.717Z,80.00
2023-04-07T22:37:11.724Z,80.00
2023-04-07T22:39:11.764Z,80.00
2023-04-07T22:41:11.807Z,80.00
2023-04-07T22:43:11.916Z,81.00
2023-04-07T22:45:11.800Z,81.00
2023-04-07T22:47:11.926Z,81.00
2023-04-07T22:49:11.802Z,81.00
2023-04-07T22:51:11.777Z,81.00
2023-04-07T22:53:11.791Z,81.00
2023-04-07T22:55:11.809Z,81.00
2023-04-07T22:57:11.800Z,81.00
2023-04-07T22:59:11.715Z,81.00
2023-04-07T23:01:11.838Z,81.00
2023-04-07T23:03:11.783Z,81.00
2023-04-07T23:06:11.788Z,81.00
2023-04-07T23:08:11.788Z,81.00
2023-04-07T23:10:11.858Z,81.00
2023-04-07T23:12:11.835Z,81.00
2023-04-07T23:13:14.760Z,81.00
2023-04-07T23:16:11.760Z,81.00
2023-04-07T23:18:11.810Z,81.00
2023-04-07T23:20:23.783Z,81.00
2023-04-07T23:22:11.845Z,81.00
2023-04-07T23:24:11.727Z,81.00
2023-04-07T23:26:11.948Z,81.00
2023-04-07T23:28:11.724Z,81.00
2023-04-07T23:30:11.738Z,81.00
2023-04-07T23:32:11.845Z,81.00
2023-04-07T23:34:11.798Z,81.00
2023-04-07T23:36:14.772Z,81.00
2023-04-07T23:38:11.782Z,81.00
2023-04-07T23:40:20.969Z,81.00
2023-04-07T23:42:11.746Z,81.00
2023-04-07T23:44:16.658Z,81.00
2023-04-07T23:46:14.584Z,81.00
2023-04-07T23:48:11.824Z,81.00
2023-04-07T23:50:11.744Z,81.00
2023-04-07T23:52:11.914Z,81.00
2023-04-07T23:54:11.879Z,81.00
2023-04-07T23:56:21.239Z,81.00
2023-04-07T23:58:14.678Z,81.00
